sensor_id;sensor_type;location;lat;lon;timestamp;temperature;humidity
10873;DHT22;34586;53.616;10.032;2023-04-03T00:00:50;1.20;99.90
10873;DHT22;34586;53.616;10.032;2023-04-03T00:03:16;1.20;99.90
10873;DHT22;34586;53.616;10.032;2023-04-03T00:05:42;1.10;99.90
10873;DHT22;34586;53.616;10.032;2023-04-03T00:08:09;1.00;99.90
10873;DHT22;34586;53.616;10.032;2023-04-03T00:10:37;1.00;99.90
10873;DHT22;34586;53.616;10.032;2023-04-03T00:13:04;1.00;99.90
10873;DHT22;34586;53.616;10.032;2023-04-03T00:15:40;0.90;99.90
10873;DHT22;34586;53.616;10.032;2023-04-03T00:18:06;0.90;99.90
10873;DHT22;34586;53.616;10.032;2023-04-03T00:20:32;0.90;99.90
10873;DHT22;34586;53.616;10.032;2023-04-03T00:22:58;0.80;99.90
10873;DHT22;34586;53.616;10.032;2023-04-03T00:25:24;0.90;99.90
10873;DHT22;34586;53.616;10.032;2023-04-03T00:27:50;0.90;99.90
10873;DHT22;34586;53.616;10.032;2023-04-03T00:30:17;0.90;99.90
10873;DHT22;34586;53.616;10.032;2023-04-03T00:32:43;0.90;99.90
10873;DHT22;34586;53.616;10.032;2023-04-03T00:35:09;0.90;99.90
10873;DHT22;34586;53.616;10.032;2023-04-03T00:37:35;0.90;99.90
10873;DHT22;34586;53.616;10.032;2023-04-03T00:40:01;0.80;99.90
10873;DHT22;34586;53.616;10.032;2023-04-03T00:42:27;0.90;99.90
10873;DHT22;34586;53.616;10.032;2023-04-03T00:47:18;0.90;99.90
10873;DHT22;34586;53.616;10.032;2023-04-03T00:49:46;1.00;99.90
10873;DHT22;34586;53.616;10.032;2023-04-03T00:52:16;1.00;99.90
10873;DHT22;34586;53.616;10.032;2023-04-03T00:54:42;1.00;99.90
10873;DHT22;34586;53.616;10.032;2023-04-03T00:57:09;0.90;99.90
10873;DHT22;34586;53.616;10.032;2023-04-03T00:59:40;0.90;99.90
10873;DHT22;34586;53.616;10.032;2023-04-03T01:02:09;0.90;99.90
10873;DHT22;34586;53.616;10.032;2023-04-03T01:04:38;0.90;99.90
10873;DHT22;34586;53.616;10.032;2023-04-03T01:07:08;0.90;99.90
10873;DHT22;34586;53.616;10.032;2023-04-03T01:09:36;0.90;99.90
10873;DHT22;34586;53.616;10.032;2023-04-03T01:14:52;0.80;99.90
10873;DHT22;34586;53.616;10.032;2023-04-03T01:28:15;0.70;99.90
10873;DHT22;34586;53.616;10.032;2023-04-03T01:30:48;0.70;99.90
10873;DHT22;34586;53.616;10.032;2023-04-03T01:33:16;0.70;99.90
10873;DHT22;34586;53.616;10.032;2023-04-03T01:35:41;0.70;99.90
10873;DHT22;34586;53.616;10.032;2023-04-03T01:38:07;0.70;99.90
10873;DHT22;34586;53.616;10.032;2023-04-03T01:40:33;0.70;99.90
10873;DHT22;34586;53.616;10.032;2023-04-03T01:42:59;0.70;99.90
10873;DHT22;34586;53.616;10.032;2023-04-03T01:45:24;0.60;99.90
10873;DHT22;34586;53.616;10.032;2023-04-03T01:47:50;0.60;99.90
10873;DHT22;34586;53.616;10.032;2023-04-03T01:50:16;0.60;99.90
10873;DHT22;34586;53.616;10.032;2023-04-03T01:52:43;0.60;99.90
10873;DHT22;34586;53.616;10.032;2023-04-03T01:55:09;0.70;99.90
10873;DHT22;34586;53.616;10.032;2023-04-03T01:57:34;0.60;99.90
10873;DHT22;34586;53.616;10.032;2023-04-03T02:00:00;0.60;99.90
10873;DHT22;34586;53.616;10.032;2023-04-03T02:02:27;0.60;99.90
10873;DHT22;34586;53.616;10.032;2023-04-03T02:04:53;0.70;99.90
10873;DHT22;34586;53.616;10.032;2023-04-03T02:07:20;0.70;99.90
10873;DHT22;34586;53.616;10.032;2023-04-03T02:09:46;0.70;99.90
10873;DHT22;34586;53.616;10.032;2023-04-03T02:12:11;0.80;99.90
10873;DHT22;34586;53.616;10.032;2023-04-03T02:14:37;0.80;99.90
10873;DHT22;34586;53.616;10.032;2023-04-03T02:17:04;0.80;99.90
10873;DHT22;34586;53.616;10.032;2023-04-03T02:19:36;0.80;99.90
10873;DHT22;34586;53.616;10.032;2023-04-03T02:22:03;0.70;99.90
10873;DHT22;34586;53.616;10.032;2023-04-03T02:24:29;0.80;99.90
10873;DHT22;34586;53.616;10.032;2023-04-03T02:26:55;0.80;99.90
10873;DHT22;34586;53.616;10.032;2023-04-03T02:29:20;0.80;99.90
10873;DHT22;34586;53.616;10.032;2023-04-03T02:31:46;0.90;99.90
10873;DHT22;34586;53.616;10.032;2023-04-03T02:34:12;0.80;99.90
10873;DHT22;34586;53.616;10.032;2023-04-03T02:36:39;0.80;99.90
10873;DHT22;34586;53.616;10.032;2023-04-03T02:39:04;0.80;99.90
10873;DHT22;34586;53.616;10.032;2023-04-03T02:41:31;0.80;99.90
10873;DHT22;34586;53.616;10.032;2023-04-03T02:44:05;0.80;99.90
10873;DHT22;34586;53.616;10.032;2023-04-03T02:46:31;0.70;99.90
10873;DHT22;34586;53.616;10.032;2023-04-03T02:48:57;0.70;99.90
10873;DHT22;34586;53.616;10.032;2023-04-03T02:51:23;0.70;99.90
10873;DHT22;34586;53.616;10.032;2023-04-03T02:53:49;0.70;99.90
10873;DHT22;34586;53.616;10.032;2023-04-03T02:56:17;0.70;99.90
10873;DHT22;34586;53.616;10.032;2023-04-03T02:58:43;0.60;99.90
10873;DHT22;34586;53.616;10.032;2023-04-03T03:01:10;0.60;99.90
10873;DHT22;34586;53.616;10.032;2023-04-03T03:03:36;0.60;99.90
10873;DHT22;34586;53.616;10.032;2023-04-03T03:08:32;0.60;99.90
10873;DHT22;34586;53.616;10.032;2023-04-03T03:10:57;0.60;99.90
10873;DHT22;34586;53.616;10.032;2023-04-03T03:13:24;0.60;99.90
10873;DHT22;34586;53.616;10.032;2023-04-03T03:15:49;0.60;99.90
10873;DHT22;34586;53.616;10.032;2023-04-03T03:18:16;0.50;99.90
10873;DHT22;34586;53.616;10.032;2023-04-03T03:20:42;0.50;99.90
10873;DHT22;34586;53.616;10.032;2023-04-03T03:23:08;0.50;99.90
10873;DHT22;34586;53.616;10.032;2023-04-03T03:25:38;0.50;99.90
10873;DHT22;34586;53.616;10.032;2023-04-03T03:28:04;0.50;99.90
10873;DHT22;34586;53.616;10.032;2023-04-03T03:30:30;0.50;99.90
10873;DHT22;34586;53.616;10.032;2023-04-03T03:32:55;0.50;99.90
10873;DHT22;34586;53.616;10.032;2023-04-03T03:35:22;0.40;99.90
10873;DHT22;34586;53.616;10.032;2023-04-03T03:37:48;0.40;99.90
10873;DHT22;34586;53.616;10.032;2023-04-03T03:40:14;0.40;99.90
10873;DHT22;34586;53.616;10.032;2023-04-03T03:42:40;0.40;99.90
10873;DHT22;34586;53.616;10.032;2023-04-03T03:45:06;0.30;99.90
10873;DHT22;34586;53.616;10.032;2023-04-03T03:47:34;0.30;99.90
10873;DHT22;34586;53.616;10.032;2023-04-03T03:50:01;0.30;99.90
10873;DHT22;34586;53.616;10.032;2023-04-03T03:52:27;0.30;99.90
10873;DHT22;34586;53.616;10.032;2023-04-03T03:54:53;0.30;99.90
10873;DHT22;34586;53.616;10.032;2023-04-03T03:57:18;0.30;99.90
10873;DHT22;34586;53.616;10.032;2023-04-03T03:59:44;0.30;99.90
10873;DHT22;34586;53.616;10.032;2023-04-03T04:02:10;0.30;99.90
10873;DHT22;34586;53.616;10.032;2023-04-03T04:04:36;0.30;99.90
10873;DHT22;34586;53.616;10.032;2023-04-03T04:07:03;0.30;99.90
10873;DHT22;34586;53.616;10.032;2023-04-03T04:09:28;0.30;99.90
10873;DHT22;34586;53.616;10.032;2023-04-03T04:11:55;0.40;99.90
10873;DHT22;34586;53.616;10.032;2023-04-03T04:14:22;0.30;99.90
10873;DHT22;34586;53.616;10.032;2023-04-03T04:16:48;0.30;99.90
10873;DHT22;34586;53.616;10.032;2023-04-03T04:19:14;0.20;99.90
10873;DHT22;34586;53.616;10.032;2023-04-03T04:21:40;0.20;99.90
10873;DHT22;34586;53.616;10.032;2023-04-03T04:24:07;0.20;99.90
10873;DHT22;34586;53.616;10.032;2023-04-03T04:26:34;0.30;99.90
10873;DHT22;34586;53.616;10.032;2023-04-03T04:29:00;0.30;99.90
10873;DHT22;34586;53.616;10.032;2023-04-03T04:31:26;0.30;99.90
10873;DHT22;34586;53.616;10.032;2023-04-03T04:33:52;0.30;99.90
10873;DHT22;34586;53.616;10.032;2023-04-03T04:36:18;0.30;99.90
10873;DHT22;34586;53.616;10.032;2023-04-03T04:38:45;0.30;99.90
10873;DHT22;34586;53.616;10.032;2023-04-03T04:41:13;0.30;99.90
10873;DHT22;34586;53.616;10.032;2023-04-03T04:43:39;0.30;99.90
10873;DHT22;34586;53.616;10.032;2023-04-03T04:46:07;0.30;99.90
10873;DHT22;34586;53.616;10.032;2023-04-03T04:48:34;0.30;99.90
10873;DHT22;34586;53.616;10.032;2023-04-03T04:51:03;0.30;99.90
10873;DHT22;34586;53.616;10.032;2023-04-03T04:53:29;0.40;99.90
10873;DHT22;34586;53.616;10.032;2023-04-03T04:55:55;0.30;99.90
10873;DHT22;34586;53.616;10.032;2023-04-03T04:58:21;0.30;99.90
10873;DHT22;34586;53.616;10.032;2023-04-03T05:00:47;0.30;99.90
10873;DHT22;34586;53.616;10.032;2023-04-03T05:03:12;0.40;99.90
10873;DHT22;34586;53.616;10.032;2023-04-03T05:05:39;0.40;99.90
10873;DHT22;34586;53.616;10.032;2023-04-03T05:08:05;0.40;99.90
10873;DHT22;34586;53.616;10.032;2023-04-03T05:10:31;0.40;99.90
10873;DHT22;34586;53.616;10.032;2023-04-03T05:12:57;0.40;99.90
10873;DHT22;34586;53.616;10.032;2023-04-03T05:15:23;0.40;99.90
10873;DHT22;34586;53.616;10.032;2023-04-03T05:17:48;0.40;99.90
10873;DHT22;34586;53.616;10.032;2023-04-03T05:20:14;0.40;99.90
10873;DHT22;34586;53.616;10.032;2023-04-03T05:22:40;0.50;99.90
10873;DHT22;34586;53.616;10.032;2023-04-03T05:25:07;0.60;99.90
10873;DHT22;34586;53.616;10.032;2023-04-03T05:27:33;0.50;99.90
10873;DHT22;34586;53.616;10.032;2023-04-03T05:29:58;0.60;99.90
10873;DHT22;34586;53.616;10.032;2023-04-03T05:32:25;0.70;99.90
10873;DHT22;34586;53.616;10.032;2023-04-03T05:34:53;0.70;99.90
10873;DHT22;34586;53.616;10.032;2023-04-03T05:37:18;0.70;99.90
10873;DHT22;34586;53.616;10.032;2023-04-03T05:39:45;0.70;99.90
10873;DHT22;34586;53.616;10.032;2023-04-03T05:42:10;0.80;99.90
10873;DHT22;34586;53.616;10.032;2023-04-03T05:44:37;0.90;99.90
10873;DHT22;34586;53.616;10.032;2023-04-03T05:47:03;0.80;99.90
10873;DHT22;34586;53.616;10.032;2023-04-03T05:49:28;0.90;99.90
10873;DHT22;34586;53.616;10.032;2023-04-03T05:51:54;0.90;99.90
10873;DHT22;34586;53.616;10.032;2023-04-03T05:54:23;1.00;99.90
10873;DHT22;34586;53.616;10.032;2023-04-03T05:56:51;1.00;99.90
10873;DHT22;34586;53.616;10.032;2023-04-03T05:59:18;1.20;99.90
10873;DHT22;34586;53.616;10.032;2023-04-03T06:01:43;1.20;99.90
10873;DHT22;34586;53.616;10.032;2023-04-03T06:04:10;1.30;99.90
10873;DHT22;34586;53.616;10.032;2023-04-03T06:06:54;1.40;99.90
10873;DHT22;34586;53.616;10.032;2023-04-03T06:09:24;1.50;99.90
10873;DHT22;34586;53.616;10.032;2023-04-03T06:11:50;1.60;99.90
10873;DHT22;34586;53.616;10.032;2023-04-03T06:14:17;1.70;99.90
10873;DHT22;34586;53.616;10.032;2023-04-03T06:16:43;1.80;99.90
10873;DHT22;34586;53.616;10.032;2023-04-03T06:19:10;1.90;99.90
10873;DHT22;34586;53.616;10.032;2023-04-03T06:21:36;2.00;99.90
10873;DHT22;34586;53.616;10.032;2023-04-03T06:24:06;2.00;99.90
10873;DHT22;34586;53.616;10.032;2023-04-03T06:26:32;2.10;99.90
10873;DHT22;34586;53.616;10.032;2023-04-03T06:28:58;2.20;99.90
10873;DHT22;34586;53.616;10.032;2023-04-03T06:31:24;2.30;99.90
10873;DHT22;34586;53.616;10.032;2023-04-03T06:33:50;2.40;99.90
10873;DHT22;34586;53.616;10.032;2023-04-03T06:36:18;2.50;99.90
10873;DHT22;34586;53.616;10.032;2023-04-03T06:38:48;2.60;99.90
10873;DHT22;34586;53.616;10.032;2023-04-03T06:41:14;2.60;99.90
10873;DHT22;34586;53.616;10.032;2023-04-03T06:43:42;2.70;99.90
10873;DHT22;34586;53.616;10.032;2023-04-03T06:46:16;2.80;99.90
10873;DHT22;34586;53.616;10.032;2023-04-03T06:48:43;2.90;99.90
10873;DHT22;34586;53.616;10.032;2023-04-03T06:51:21;3.00;99.90
10873;DHT22;34586;53.616;10.032;2023-04-03T06:53:48;3.10;99.90
10873;DHT22;34586;53.616;10.032;2023-04-03T06:56:14;3.10;99.90
10873;DHT22;34586;53.616;10.032;2023-04-03T06:58:40;3.20;99.90
10873;DHT22;34586;53.616;10.032;2023-04-03T07:01:09;3.30;99.90
10873;DHT22;34586;53.616;10.032;2023-04-03T07:03:35;3.40;99.90
10873;DHT22;34586;53.616;10.032;2023-04-03T07:06:02;3.40;99.90
10873;DHT22;34586;53.616;10.032;2023-04-03T07:08:28;3.50;99.90
10873;DHT22;34586;53.616;10.032;2023-04-03T07:10:54;3.60;99.90
10873;DHT22;34586;53.616;10.032;2023-04-03T07:13:20;3.70;99.90
10873;DHT22;34586;53.616;10.032;2023-04-03T07:15:45;3.80;99.90
10873;DHT22;34586;53.616;10.032;2023-04-03T07:18:11;3.90;99.90
10873;DHT22;34586;53.616;10.032;2023-04-03T07:20:36;4.00;99.90
10873;DHT22;34586;53.616;10.032;2023-04-03T07:23:03;4.10;99.90
10873;DHT22;34586;53.616;10.032;2023-04-03T07:25:29;4.10;99.90
10873;DHT22;34586;53.616;10.032;2023-04-03T07:27:55;4.20;99.90
10873;DHT22;34586;53.616;10.032;2023-04-03T07:30:21;4.30;99.90
10873;DHT22;34586;53.616;10.032;2023-04-03T07:32:47;4.30;99.90
10873;DHT22;34586;53.616;10.032;2023-04-03T07:35:13;4.40;99.90
10873;DHT22;34586;53.616;10.032;2023-04-03T07:37:39;4.50;99.90
10873;DHT22;34586;53.616;10.032;2023-04-03T07:40:05;4.50;99.90
10873;DHT22;34586;53.616;10.032;2023-04-03T07:42:32;4.60;99.90
10873;DHT22;34586;53.616;10.032;2023-04-03T07:44:57;4.70;99.90
10873;DHT22;34586;53.616;10.032;2023-04-03T07:47:23;4.70;99.90
10873;DHT22;34586;53.616;10.032;2023-04-03T07:49:48;4.80;99.90
10873;DHT22;34586;53.616;10.032;2023-04-03T07:52:14;4.80;99.90
10873;DHT22;34586;53.616;10.032;2023-04-03T07:54:41;4.90;99.90
10873;DHT22;34586;53.616;10.032;2023-04-03T07:57:07;4.90;99.90
10873;DHT22;34586;53.616;10.032;2023-04-03T07:59:32;4.90;99.90
10873;DHT22;34586;53.616;10.032;2023-04-03T08:01:58;4.90;99.90
10873;DHT22;34586;53.616;10.032;2023-04-03T08:04:24;5.00;99.90
10873;DHT22;34586;53.616;10.032;2023-04-03T08:06:50;5.10;99.90
10873;DHT22;34586;53.616;10.032;2023-04-03T08:09:16;5.30;99.90
10873;DHT22;34586;53.616;10.032;2023-04-03T08:11:42;5.20;99.90
10873;DHT22;34586;53.616;10.032;2023-04-03T08:14:08;5.20;99.90
10873;DHT22;34586;53.616;10.032;2023-04-03T08:16:36;5.20;99.90
10873;DHT22;34586;53.616;10.032;2023-04-03T08:19:02;5.30;99.90
10873;DHT22;34586;53.616;10.032;2023-04-03T08:21:27;5.30;99.90
10873;DHT22;34586;53.616;10.032;2023-04-03T08:23:53;5.30;99.90
10873;DHT22;34586;53.616;10.032;2023-04-03T08:26:20;5.30;99.90
10873;DHT22;34586;53.616;10.032;2023-04-03T08:28:47;5.40;99.90
10873;DHT22;34586;53.616;10.032;2023-04-03T08:31:16;5.40;99.90
10873;DHT22;34586;53.616;10.032;2023-04-03T08:33:44;5.50;99.90
10873;DHT22;34586;53.616;10.032;2023-04-03T08:36:22;5.50;99.90
10873;DHT22;34586;53.616;10.032;2023-04-03T08:38:50;5.60;99.90
10873;DHT22;34586;53.616;10.032;2023-04-03T08:43:56;5.70;99.90
10873;DHT22;34586;53.616;10.032;2023-04-03T08:46:32;5.70;99.90
10873;DHT22;34586;53.616;10.032;2023-04-03T08:48:59;5.80;99.90
10873;DHT22;34586;53.616;10.032;2023-04-03T08:51:26;5.80;99.90
10873;DHT22;34586;53.616;10.032;2023-04-03T08:54:00;5.90;99.90
10873;DHT22;34586;53.616;10.032;2023-04-03T08:56:30;5.90;99.90
10873;DHT22;34586;53.616;10.032;2023-04-03T08:58:59;5.90;99.90
10873;DHT22;34586;53.616;10.032;2023-04-03T09:01:36;5.90;99.90
10873;DHT22;34586;53.616;10.032;2023-04-03T09:04:09;5.90;99.90
10873;DHT22;34586;53.616;10.032;2023-04-03T09:06:36;5.90;99.90
10873;DHT22;34586;53.616;10.032;2023-04-03T09:14:18;6.00;99.90
10873;DHT22;34586;53.616;10.032;2023-04-03T09:16:54;6.00;99.90
10873;DHT22;34586;53.616;10.032;2023-04-03T09:21:58;6.10;99.90
10873;DHT22;34586;53.616;10.032;2023-04-03T09:24:25;6.20;99.90
10873;DHT22;34586;53.616;10.032;2023-04-03T09:26:56;6.20;99.90
10873;DHT22;34586;53.616;10.032;2023-04-03T09:29:25;6.40;99.90
10873;DHT22;34586;53.616;10.032;2023-04-03T09:32:07;6.40;99.90
10873;DHT22;34586;53.616;10.032;2023-04-03T09:34:37;6.60;99.90
10873;DHT22;34586;53.616;10.032;2023-04-03T09:37:04;6.70;99.90
10873;DHT22;34586;53.616;10.032;2023-04-03T09:39:52;6.50;99.90
10873;DHT22;34586;53.616;10.032;2023-04-03T09:42:21;6.60;99.90
10873;DHT22;34586;53.616;10.032;2023-04-03T09:45:04;6.60;99.90
10873;DHT22;34586;53.616;10.032;2023-04-03T09:47:32;6.60;99.90
10873;DHT22;34586;53.616;10.032;2023-04-03T09:52:41;6.60;99.90
10873;DHT22;34586;53.616;10.032;2023-04-03T09:55:20;6.70;99.90
10873;DHT22;34586;53.616;10.032;2023-04-03T09:57:59;6.70;99.90
10873;DHT22;34586;53.616;10.032;2023-04-03T10:00:30;6.80;1.00
10873;DHT22;34586;53.616;10.032;2023-04-03T10:02:57;6.80;99.90
10873;DHT22;34586;53.616;10.032;2023-04-03T10:10:46;6.80;99.90
10873;DHT22;34586;53.616;10.032;2023-04-03T10:15:47;6.80;99.90
10873;DHT22;34586;53.616;10.032;2023-04-03T10:20:57;6.90;99.90
10873;DHT22;34586;53.616;10.032;2023-04-03T10:23:28;6.90;99.90
10873;DHT22;34586;53.616;10.032;2023-04-03T10:29:02;7.20;99.90
10873;DHT22;34586;53.616;10.032;2023-04-03T10:37:21;7.30;99.90
10873;DHT22;34586;53.616;10.032;2023-04-03T10:42:43;7.40;99.90
10873;DHT22;34586;53.616;10.032;2023-04-03T10:45:31;7.30;99.90
10873;DHT22;34586;53.616;10.032;2023-04-03T10:49:05;7.40;99.90
10873;DHT22;34586;53.616;10.032;2023-04-03T10:58:52;7.70;99.90
10873;DHT22;34586;53.616;10.032;2023-04-03T11:01:26;7.90;99.90
10873;DHT22;34586;53.616;10.032;2023-04-03T11:03:59;8.10;99.90
10873;DHT22;34586;53.616;10.032;2023-04-03T11:06:36;7.80;99.90
10873;DHT22;34586;53.616;10.032;2023-04-03T11:11:45;7.70;99.90
10873;DHT22;34586;53.616;10.032;2023-04-03T11:14:29;7.40;99.90
10873;DHT22;34586;53.616;10.032;2023-04-03T11:22:42;8.00;99.90
10873;DHT22;34586;53.616;10.032;2023-04-03T11:27:42;8.90;99.90
10873;DHT22;34586;53.616;10.032;2023-04-03T11:30:22;8.90;99.90
10873;DHT22;34586;53.616;10.032;2023-04-03T11:35:16;9.10;99.90
10873;DHT22;34586;53.616;10.032;2023-04-03T11:37:47;9.20;99.90
10873;DHT22;34586;53.616;10.032;2023-04-03T11:42:48;9.60;99.90
10873;DHT22;34586;53.616;10.032;2023-04-03T11:47:58;9.20;99.90
10873;DHT22;34586;53.616;10.032;2023-04-03T11:50:32;9.00;99.90
10873;DHT22;34586;53.616;10.032;2023-04-03T11:56:27;9.70;99.90
10873;DHT22;34586;53.616;10.032;2023-04-03T12:02:21;10.50;99.90
10873;DHT22;34586;53.616;10.032;2023-04-03T12:13:37;10.30;99.90
10873;DHT22;34586;53.616;10.032;2023-04-03T12:16:05;10.30;99.90
10873;DHT22;34586;53.616;10.032;2023-04-03T12:18:44;10.10;99.90
10873;DHT22;34586;53.616;10.032;2023-04-03T12:21:12;10.20;99.90
10873;DHT22;34586;53.616;10.032;2023-04-03T12:23:58;10.30;99.90
10873;DHT22;34586;53.616;10.032;2023-04-03T12:40:21;9.60;99.90
10873;DHT22;34586;53.616;10.032;2023-04-03T12:46:04;10.90;99.90
10873;DHT22;34586;53.616;10.032;2023-04-03T12:48:33;11.80;99.90
10873;DHT22;34586;53.616;10.032;2023-04-03T12:51:03;12.00;99.90
10873;DHT22;34586;53.616;10.032;2023-04-03T12:53:35;12.50;99.90
10873;DHT22;34586;53.616;10.032;2023-04-03T12:56:22;12.60;89.70
10873;DHT22;34586;53.616;10.032;2023-04-03T12:58:50;13.10;91.70
10873;DHT22;34586;53.616;10.032;2023-04-03T13:01:20;13.10;65.20
10873;DHT22;34586;53.616;10.032;2023-04-03T13:03:53;13.40;58.70
10873;DHT22;34586;53.616;10.032;2023-04-03T13:06:39;13.10;43.00
10873;DHT22;34586;53.616;10.032;2023-04-03T13:09:06;12.90;28.70
10873;DHT22;34586;53.616;10.032;2023-04-03T13:11:43;12.50;1.00
10873;DHT22;34586;53.616;10.032;2023-04-03T13:14:37;12.40;26.30
10873;DHT22;34586;53.616;10.032;2023-04-03T13:17:15;12.50;36.90
10873;DHT22;34586;53.616;10.032;2023-04-03T13:19:42;13.10;35.00
10873;DHT22;34586;53.616;10.032;2023-04-03T13:22:36;13.00;22.50
10873;DHT22;34586;53.616;10.032;2023-04-03T13:25:07;13.00;28.10
10873;DHT22;34586;53.616;10.032;2023-04-03T13:27:36;12.70;24.60
10873;DHT22;34586;53.616;10.032;2023-04-03T13:30:05;12.40;15.20
10873;DHT22;34586;53.616;10.032;2023-04-03T13:32:32;12.30;16.70
10873;DHT22;34586;53.616;10.032;2023-04-03T13:34:58;12.20;2.10
10873;DHT22;34586;53.616;10.032;2023-04-03T13:37:27;12.30;37.30
10873;DHT22;34586;53.616;10.032;2023-04-03T13:42:41;12.90;11.50
10873;DHT22;34586;53.616;10.032;2023-04-03T13:47:41;12.80;4.80
10873;DHT22;34586;53.616;10.032;2023-04-03T13:50:17;12.40;1.00
10873;DHT22;34586;53.616;10.032;2023-04-03T13:52:49;12.20;1.00
10873;DHT22;34586;53.616;10.032;2023-04-03T13:55:33;12.20;1.00
10873;DHT22;34586;53.616;10.032;2023-04-03T13:58:21;12.00;1.00
10873;DHT22;34586;53.616;10.032;2023-04-03T14:03:56;12.00;4.30
10873;DHT22;34586;53.616;10.032;2023-04-03T14:06:37;12.00;33.40
10873;DHT22;34586;53.616;10.032;2023-04-03T14:09:03;12.10;1.00
10873;DHT22;34586;53.616;10.032;2023-04-03T14:11:30;12.10;1.00
10873;DHT22;34586;53.616;10.032;2023-04-03T14:14:05;12.00;1.00
10873;DHT22;34586;53.616;10.032;2023-04-03T14:16:35;11.40;1.00
10873;DHT22;34586;53.616;10.032;2023-04-03T14:19:03;11.40;1.00
10873;DHT22;34586;53.616;10.032;2023-04-03T14:21:28;11.20;1.00
10873;DHT22;34586;53.616;10.032;2023-04-03T14:23:54;11.30;1.00
10873;DHT22;34586;53.616;10.032;2023-04-03T14:26:23;11.20;31.70
10873;DHT22;34586;53.616;10.032;2023-04-03T14:28:53;11.10;1.90
10873;DHT22;34586;53.616;10.032;2023-04-03T14:31:20;10.80;52.00
10873;DHT22;34586;53.616;10.032;2023-04-03T14:33:46;10.70;45.20
10873;DHT22;34586;53.616;10.032;2023-04-03T14:36:17;10.70;56.20
10873;DHT22;34586;53.616;10.032;2023-04-03T14:38:44;10.70;41.90
10873;DHT22;34586;53.616;10.032;2023-04-03T14:41:16;10.60;44.20
10873;DHT22;34586;53.616;10.032;2023-04-03T14:43:43;10.60;55.40
10873;DHT22;34586;53.616;10.032;2023-04-03T14:46:37;10.70;81.70
10873;DHT22;34586;53.616;10.032;2023-04-03T14:49:18;10.80;58.30
10873;DHT22;34586;53.616;10.032;2023-04-03T14:51:44;10.70;44.70
10873;DHT22;34586;53.616;10.032;2023-04-03T14:54:16;10.90;76.70
10873;DHT22;34586;53.616;10.032;2023-04-03T14:56:42;11.20;72.30
10873;DHT22;34586;53.616;10.032;2023-04-03T14:59:12;11.20;49.80
10873;DHT22;34586;53.616;10.032;2023-04-03T15:01:38;11.00;86.90
10873;DHT22;34586;53.616;10.032;2023-04-03T15:04:21;11.00;64.10
10873;DHT22;34586;53.616;10.032;2023-04-03T15:06:48;11.10;84.20
10873;DHT22;34586;53.616;10.032;2023-04-03T15:09:26;10.80;97.90
10873;DHT22;34586;53.616;10.032;2023-04-03T15:11:53;10.50;91.10
10873;DHT22;34586;53.616;10.032;2023-04-03T15:14:20;10.40;99.90
10873;DHT22;34586;53.616;10.032;2023-04-03T15:16:46;10.50;99.90
10873;DHT22;34586;53.616;10.032;2023-04-03T15:19:12;10.50;94.50
10873;DHT22;34586;53.616;10.032;2023-04-03T15:21:38;10.70;99.90
10873;DHT22;34586;53.616;10.032;2023-04-03T15:24:04;10.70;99.90
10873;DHT22;34586;53.616;10.032;2023-04-03T15:26:31;10.80;99.90
10873;DHT22;34586;53.616;10.032;2023-04-03T15:28:57;10.90;99.90
10873;DHT22;34586;53.616;10.032;2023-04-03T15:31:24;10.90;99.90
10873;DHT22;34586;53.616;10.032;2023-04-03T15:33:50;11.00;99.90
10873;DHT22;34586;53.616;10.032;2023-04-03T15:36:16;11.00;99.90
10873;DHT22;34586;53.616;10.032;2023-04-03T15:38:41;10.70;99.90
10873;DHT22;34586;53.616;10.032;2023-04-03T15:41:07;10.40;99.90
10873;DHT22;34586;53.616;10.032;2023-04-03T15:43:33;9.80;99.90
10873;DHT22;34586;53.616;10.032;2023-04-03T15:46:00;10.00;99.90
10873;DHT22;34586;53.616;10.032;2023-04-03T15:48:27;10.00;99.90
10873;DHT22;34586;53.616;10.032;2023-04-03T15:50:53;10.20;99.90
10873;DHT22;34586;53.616;10.032;2023-04-03T15:53:19;10.40;99.90
10873;DHT22;34586;53.616;10.032;2023-04-03T15:55:45;10.50;99.90
10873;DHT22;34586;53.616;10.032;2023-04-03T15:58:11;10.40;99.90
10873;DHT22;34586;53.616;10.032;2023-04-03T16:00:37;10.20;99.90
10873;DHT22;34586;53.616;10.032;2023-04-03T16:03:11;9.90;99.90
10873;DHT22;34586;53.616;10.032;2023-04-03T16:05:38;9.90;99.90
10873;DHT22;34586;53.616;10.032;2023-04-03T16:08:05;9.50;99.90
10873;DHT22;34586;53.616;10.032;2023-04-03T16:10:36;9.30;99.90
10873;DHT22;34586;53.616;10.032;2023-04-03T16:13:03;8.90;99.90
10873;DHT22;34586;53.616;10.032;2023-04-03T16:15:30;8.70;99.90
10873;DHT22;34586;53.616;10.032;2023-04-03T16:17:57;8.60;1.00
10873;DHT22;34586;53.616;10.032;2023-04-03T16:20:23;8.20;1.00
10873;DHT22;34586;53.616;10.032;2023-04-03T16:22:49;8.00;1.00
10873;DHT22;34586;53.616;10.032;2023-04-03T16:25:15;8.00;1.00
10873;DHT22;34586;53.616;10.032;2023-04-03T16:27:41;8.10;1.00
10873;DHT22;34586;53.616;10.032;2023-04-03T16:30:07;7.90;1.00
10873;DHT22;34586;53.616;10.032;2023-04-03T16:32:34;8.00;1.00
10873;DHT22;34586;53.616;10.032;2023-04-03T16:35:00;7.90;1.00
10873;DHT22;34586;53.616;10.032;2023-04-03T16:37:25;7.90;1.00
10873;DHT22;34586;53.616;10.032;2023-04-03T16:39:51;7.80;1.00
10873;DHT22;34586;53.616;10.032;2023-04-03T16:42:17;7.90;1.00
10873;DHT22;34586;53.616;10.032;2023-04-03T16:44:43;7.70;99.90
10873;DHT22;34586;53.616;10.032;2023-04-03T16:47:08;7.60;99.90
10873;DHT22;34586;53.616;10.032;2023-04-03T16:49:35;7.60;99.90
10873;DHT22;34586;53.616;10.032;2023-04-03T16:52:03;7.40;99.90
10873;DHT22;34586;53.616;10.032;2023-04-03T16:54:30;7.30;99.90
10873;DHT22;34586;53.616;10.032;2023-04-03T16:56:56;7.20;99.90
10873;DHT22;34586;53.616;10.032;2023-04-03T16:59:23;7.10;99.90
10873;DHT22;34586;53.616;10.032;2023-04-03T17:01:49;7.10;99.90
10873;DHT22;34586;53.616;10.032;2023-04-03T17:04:15;7.10;99.90
10873;DHT22;34586;53.616;10.032;2023-04-03T17:06:41;7.00;99.90
10873;DHT22;34586;53.616;10.032;2023-04-03T17:09:07;7.20;99.90
10873;DHT22;34586;53.616;10.032;2023-04-03T17:11:34;6.90;99.90
10873;DHT22;34586;53.616;10.032;2023-04-03T17:13:59;6.90;99.90
10873;DHT22;34586;53.616;10.032;2023-04-03T17:16:25;6.70;99.90
10873;DHT22;34586;53.616;10.032;2023-04-03T17:18:54;6.70;99.90
10873;DHT22;34586;53.616;10.032;2023-04-03T17:21:20;6.60;99.90
10873;DHT22;34586;53.616;10.032;2023-04-03T17:23:50;6.70;99.90
10873;DHT22;34586;53.616;10.032;2023-04-03T17:26:18;6.50;99.90
10873;DHT22;34586;53.616;10.032;2023-04-03T17:28:43;6.60;99.90
10873;DHT22;34586;53.616;10.032;2023-04-03T17:31:09;6.80;99.90
10873;DHT22;34586;53.616;10.032;2023-04-03T17:33:35;6.30;99.90
10873;DHT22;34586;53.616;10.032;2023-04-03T17:36:02;6.20;99.90
10873;DHT22;34586;53.616;10.032;2023-04-03T17:38:30;6.20;99.90